Time;durP1;ratioP1;P1;durP2;ratioP2;P2;SDS_P1;SDS_P2;PMS_P1;PMS_P2;Temp;Humidity;BMP_temperature;BMP_pressure;BME280_temperature;BME280_humidity;BME280_pressure;Samples;Min_cycle;Max_cycle;Signal;HPM_P1;HPM_P2
2023/02/18 00:00:41;;;;;;;1.70;1.13;;;10.50;99.90;;;;;;8218409;28;20113;-79
2023/02/18 00:04:41;;;;;;;1.95;1.10;;;10.50;99.90;;;;;;8226794;28;20066;-79
2023/02/18 00:08:42;;;;;;;2.03;1.25;;;10.60;99.90;;;;;;8239164;28;20568;-79
2023/02/18 00:12:43;;;;;;;2.17;1.08;;;10.60;99.90;;;;;;8251706;28;20454;-78
2023/02/18 00:16:45;;;;;;;1.73;1.02;;;10.60;99.90;;;;;;8219378;28;20035;-80
2023/02/18 00:20:45;;;;;;;3.13;1.13;;;10.50;99.90;;;;;;8239953;28;20062;-77
2023/02/18 00:24:46;;;;;;;3.05;1.35;;;10.60;99.90;;;;;;8219599;28;20030;-81
2023/02/18 00:28:48;;;;;;;2.40;1.20;;;10.40;99.90;;;;;;8235966;28;20431;-80
2023/02/18 00:32:48;;;;;;;1.40;0.98;;;10.30;99.90;;;;;;8229758;28;20027;-81
2023/02/18 00:36:49;;;;;;;2.17;1.30;;;10.40;99.90;;;;;;8224431;28;20171;-81
2023/02/18 00:40:49;;;;;;;2.40;1.63;;;10.30;99.90;;;;;;8233418;28;20026;-80
2023/02/18 00:44:50;;;;;;;2.75;1.70;;;10.30;99.90;;;;;;8228323;28;20064;-78
2023/02/18 00:48:52;;;;;;;4.32;1.63;;;10.30;99.90;;;;;;8229803;28;20057;-81
2023/02/18 00:52:52;;;;;;;2.13;1.38;;;10.30;99.90;;;;;;8236273;28;20026;-81
2023/02/18 00:56:53;;;;;;;2.60;1.50;;;10.40;99.90;;;;;;8240752;28;20050;-79
2023/02/18 01:00:54;;;;;;;3.20;1.42;;;10.50;99.90;;;;;;8258746;28;20030;-78
2023/02/18 01:04:55;;;;;;;3.17;1.48;;;10.40;99.90;;;;;;8250086;28;20034;-79
2023/02/18 01:08:55;;;;;;;3.78;1.80;;;10.50;99.90;;;;;;8242098;28;20107;-78
2023/02/18 01:12:56;;;;;;;3.42;1.80;;;10.50;99.90;;;;;;8222888;28;20031;-79
2023/02/18 01:16:56;;;;;;;4.43;1.90;;;10.60;99.90;;;;;;8229066;28;20090;-79
2023/02/18 01:20:58;;;;;;;5.10;2.30;;;10.50;99.90;;;;;;8236024;28;20127;-79
2023/02/18 01:24:58;;;;;;;3.60;2.28;;;10.50;99.90;;;;;;8234670;28;20514;-78
2023/02/18 01:28:59;;;;;;;2.97;2.28;;;10.50;99.90;;;;;;8229852;28;20034;-79
2023/02/18 01:33:00;;;;;;;3.53;2.33;;;10.50;99.90;;;;;;8226305;28;20478;-80
2023/02/18 01:37:00;;;;;;;3.10;1.90;;;10.50;99.90;;;;;;8236732;28;20022;-80
2023/02/18 01:41:01;;;;;;;3.53;2.45;;;10.50;99.90;;;;;;8237228;28;20073;-80
2023/02/18 01:45:33;;;;;;;4.18;2.08;;;10.50;99.90;;;;;;8250446;28;20415;-79
2023/02/18 01:49:36;;;;;;;3.13;2.00;;;10.40;99.90;;;;;;8258269;28;20030;-80
2023/02/18 01:53:47;;;;;;;4.25;2.08;;;10.30;99.90;;;;;;8239514;28;20062;-80
2023/02/18 01:57:47;;;;;;;;;;;10.40;99.90;;;;;;8244457;28;20023;-80
2023/02/18 02:01:48;;;;;;;;;;;10.20;99.90;;;;;;8241936;28;19913;-80
2023/02/18 02:05:48;;;;;;;3.30;2.13;;;10.30;99.90;;;;;;8250152;28;19905;-80
2023/02/18 02:09:52;;;;;;;6.25;1.95;;;10.10;99.90;;;;;;8251140;28;20051;-79
2023/02/18 02:14:30;;;;;;;4.25;2.20;;;10.10;99.90;;;;;;8246565;28;20027;-80
2023/02/18 02:18:52;;;;;;;2.63;1.85;;;10.20;99.90;;;;;;8247855;28;20139;-80
2023/02/18 02:23:36;;;;;;;3.75;2.08;;;10.10;99.90;;;;;;8234663;28;20117;-79
2023/02/18 02:28:09;;;;;;;3.38;2.10;;;10.10;99.90;;;;;;8233715;28;20019;-80
2023/02/18 02:32:28;;;;;;;2.78;1.80;;;10.10;99.90;;;;;;8243542;28;20096;-79
2023/02/18 02:36:41;;;;;;;3.03;1.88;;;10.10;99.90;;;;;;8243646;28;20050;-80
2023/02/18 02:40:41;;;;;;;4.55;1.90;;;10.10;99.90;;;;;;8226701;28;20089;-80
2023/02/18 02:44:57;;;;;;;2.70;1.98;;;9.90;99.90;;;;;;8226050;28;20062;-79
2023/02/18 02:49:27;;;;;;;3.60;2.03;;;9.80;99.90;;;;;;8229045;28;20031;-80
2023/02/18 02:53:32;;;;;;;4.87;1.90;;;9.70;99.90;;;;;;8222709;28;20416;-80
2023/02/18 02:57:35;;;;;;;4.07;1.90;;;9.60;99.90;;;;;;8239534;28;20022;-80
2023/02/18 03:02:07;;;;;;;2.58;1.95;;;9.70;99.90;;;;;;8248053;28;20026;-80
2023/02/18 03:06:50;;;;;;;3.40;1.48;;;9.70;99.90;;;;;;8228974;28;20037;-80
2023/02/18 03:11:08;;;;;;;2.20;1.48;;;9.80;99.90;;;;;;8228532;28;20038;-79
2023/02/18 03:15:35;;;;;;;1.60;1.00;;;9.90;99.90;;;;;;8225572;28;20034;-78
2023/02/18 03:19:44;;;;;;;2.92;1.60;;;9.90;99.90;;;;;;8222209;28;20018;-80
2023/02/18 03:23:52;;;;;;;1.92;1.60;;;9.90;99.90;;;;;;8210639;28;20439;-80
2023/02/18 03:27:58;;;;;;;1.65;1.15;;;9.90;99.90;;;;;;8230745;28;20554;-80
2023/02/18 03:32:04;;;;;;;2.42;1.73;;;9.90;99.90;;;;;;8237801;28;20117;-78
2023/02/18 03:36:05;;;;;;;2.15;1.45;;;9.90;99.90;;;;;;8236600;28;20081;-77
2023/02/18 03:40:08;;;;;;;3.00;1.45;;;9.80;99.90;;;;;;8248700;28;20030;-79
2023/02/18 03:44:10;;;;;;;1.85;1.48;;;9.90;99.90;;;;;;8227120;28;20027;-79
2023/02/18 03:48:10;;;;;;;2.05;1.27;;;9.80;99.90;;;;;;8235957;28;20030;-79
2023/02/18 03:52:11;;;;;;;1.83;1.30;;;9.70;99.90;;;;;;8225709;28;20514;-79
2023/02/18 03:56:12;;;;;;;1.58;1.30;;;9.60;99.90;;;;;;8249011;28;20042;-77
2023/02/18 04:00:13;;;;;;;2.08;1.42;;;9.50;99.90;;;;;;8231602;28;20026;-79
2023/02/18 04:04:14;;;;;;;2.17;1.48;;;9.30;99.90;;;;;;8221590;28;20034;-78
2023/02/18 04:08:14;;;;;;;2.05;1.40;;;9.20;99.90;;;;;;8231397;28;20030;-79
2023/02/18 04:12:15;;;;;;;1.58;1.25;;;9.20;99.90;;;;;;8229779;28;20034;-77
2023/02/18 04:16:15;;;;;;;2.88;1.40;;;9.20;99.90;;;;;;8239690;28;20023;-78
2023/02/18 04:20:16;;;;;;;1.50;1.08;;;9.30;99.90;;;;;;8241717;28;20367;-79
2023/02/18 04:24:17;;;;;;;2.13;1.17;;;9.30;99.90;;;;;;8245512;28;20032;-79
2023/02/18 04:28:17;;;;;;;1.70;1.13;;;9.30;99.90;;;;;;8238006;28;20054;-79
2023/02/18 04:32:18;;;;;;;2.33;1.40;;;9.20;99.90;;;;;;8228237;28;20654;-79
2023/02/18 04:36:18;;;;;;;0.98;0.88;;;9.10;99.90;;;;;;8225407;28;20435;-79
2023/02/18 04:40:19;;;;;;;2.60;0.98;;;9.10;99.90;;;;;;8228381;28;20028;-80
2023/02/18 04:44:19;;;;;;;1.52;1.20;;;9.00;99.90;;;;;;8236397;28;20058;-79
2023/02/18 04:48:20;;;;;;;1.98;1.25;;;8.80;99.90;;;;;;8239814;28;20045;-78
2023/02/18 04:52:21;;;;;;;2.35;1.30;;;8.80;99.90;;;;;;8230053;28;20031;-80
2023/02/18 04:56:21;;;;;;;3.75;1.35;;;8.50;99.90;;;;;;8242731;28;20035;-80
2023/02/18 05:00:22;;;;;;;2.00;1.40;;;8.60;99.90;;;;;;8244181;28;20034;-80
2023/02/18 05:04:22;;;;;;;2.20;1.48;;;8.70;99.90;;;;;;8246158;28;20023;-79
2023/02/18 05:08:23;;;;;;;2.33;1.70;;;8.80;99.90;;;;;;8223482;28;20546;-79
2023/02/18 05:12:24;;;;;;;2.97;1.67;;;8.70;99.90;;;;;;8260111;28;20057;-79
2023/02/18 05:16:24;;;;;;;2.17;1.55;;;8.60;99.90;;;;;;8231281;28;20038;-80
2023/02/18 05:20:25;;;;;;;2.80;1.88;;;8.80;99.90;;;;;;8253623;28;20034;-79
2023/02/18 05:24:26;;;;;;;7.70;3.30;;;8.90;99.90;;;;;;8227512;28;20414;-79
2023/02/18 05:28:26;;;;;;;3.40;2.10;;;8.80;99.90;;;;;;8229736;28;20026;-80
2023/02/18 05:32:27;;;;;;;2.78;1.80;;;9.00;99.90;;;;;;8252506;28;20041;-78
2023/02/18 05:36:27;;;;;;;4.63;2.63;;;9.00;99.90;;;;;;8243654;28;20038;-79
2023/02/18 05:40:28;;;;;;;13.23;6.70;;;9.00;99.90;;;;;;8233102;28;20537;-80
2023/02/18 05:44:29;;;;;;;5.82;3.10;;;9.00;99.90;;;;;;8247474;28;20037;-80
2023/02/18 05:48:29;;;;;;;10.40;4.90;;;9.00;99.90;;;;;;8242393;28;20026;-79
2023/02/18 05:52:30;;;;;;;12.18;5.65;;;9.00;99.90;;;;;;8221040;28;20026;-79
2023/02/18 05:56:30;;;;;;;12.95;5.57;;;9.00;99.90;;;;;;8257003;28;20030;-79
2023/02/18 06:00:31;;;;;;;2.80;1.88;;;8.90;99.90;;;;;;8227053;28;20457;-78
2023/02/18 06:04:32;;;;;;;3.55;2.60;;;8.90;99.90;;;;;;8232054;28;20302;-79
2023/02/18 06:08:32;;;;;;;3.50;1.98;;;9.00;99.90;;;;;;8229533;28;20089;-79
2023/02/18 06:12:33;;;;;;;2.60;1.60;;;8.90;99.90;;;;;;8236558;28;20049;-79
2023/02/18 06:16:33;;;;;;;1.90;1.52;;;8.90;99.90;;;;;;8243131;28;20487;-80
2023/02/18 06:20:34;;;;;;;2.75;1.50;;;9.00;99.90;;;;;;8244222;28;20037;-79
2023/02/18 06:24:34;;;;;;;1.58;1.38;;;8.90;99.90;;;;;;8247327;28;20031;-78
2023/02/18 06:28:35;;;;;;;2.67;1.65;;;9.00;99.90;;;;;;8219074;28;20508;-79
2023/02/18 06:32:36;;;;;;;1.35;1.10;;;9.00;99.90;;;;;;8216985;28;20418;-79
2023/02/18 06:36:36;;;;;;;2.10;1.27;;;9.00;99.90;;;;;;8229321;28;20022;-78
2023/02/18 06:40:37;;;;;;;1.77;1.15;;;9.00;99.90;;;;;;8220773;28;20026;-79
2023/02/18 06:44:37;;;;;;;1.83;1.10;;;9.10;99.90;;;;;;8243335;28;20031;-79
2023/02/18 06:48:38;;;;;;;1.55;1.20;;;9.20;99.90;;;;;;8221061;28;20046;-79
2023/02/18 06:52:38;;;;;;;1.60;1.17;;;9.20;99.90;;;;;;8233623;28;20033;-78
2023/02/18 06:56:39;;;;;;;1.15;0.98;;;9.20;99.90;;;;;;8219633;28;20027;-79
2023/02/18 07:00:39;;;;;;;1.88;1.27;;;9.10;99.90;;;;;;8219888;28;20030;-79
2023/02/18 07:04:40;;;;;;;2.15;1.20;;;9.20;99.90;;;;;;8223891;28;20034;-79
2023/02/18 07:08:40;;;;;;;2.17;1.50;;;9.10;99.90;;;;;;8224887;28;20562;-79
2023/02/18 07:12:41;;;;;;;3.47;1.95;;;9.00;99.90;;;;;;8229988;28;20059;-78
2023/02/18 07:16:41;;;;;;;4.90;2.83;;;9.10;99.90;;;;;;8216794;28;20026;-79
2023/02/18 07:20:42;;;;;;;10.40;4.75;;;9.10;99.90;;;;;;8253294;28;20035;-79
2023/02/18 07:24:43;;;;;;;4.88;2.53;;;9.00;99.90;;;;;;8240797;28;20023;-78
2023/02/18 07:28:43;;;;;;;1.83;1.50;;;9.10;99.90;;;;;;8222774;28;20037;-79
2023/02/18 07:32:44;;;;;;;3.40;1.77;;;9.10;99.90;;;;;;8228400;28;20077;-79
2023/02/18 07:36:44;;;;;;;1.70;1.10;;;9.40;99.90;;;;;;8240402;28;20514;-80
2023/02/18 07:40:45;;;;;;;1.58;1.20;;;9.20;99.90;;;;;;8254921;28;20384;-79
2023/02/18 07:44:45;;;;;;;1.88;0.88;;;9.40;99.90;;;;;;8225257;28;20030;-79
2023/02/18 07:48:46;;;;;;;1.73;1.35;;;9.60;99.90;;;;;;8217050;28;20033;-79
2023/02/18 07:52:46;;;;;;;1.88;0.90;;;9.80;99.90;;;;;;8228942;28;20134;-80
2023/02/18 07:56:47;;;;;;;4.97;3.58;;;10.00;99.90;;;;;;8246732;28;20491;-80
2023/02/18 08:00:48;;;;;;;5.00;3.58;;;10.30;99.90;;;;;;8212991;28;20038;-79
2023/02/18 08:04:49;;;;;;;2.17;1.42;;;10.60;99.90;;;;;;8216960;28;20470;-79
2023/02/18 08:08:50;;;;;;;1.30;1.00;;;11.10;99.90;;;;;;8241164;28;20046;-80
2023/02/18 08:12:50;;;;;;;1.05;0.85;;;11.60;99.90;;;;;;8241346;28;20015;-79
2023/02/18 08:16:52;;;;;;;1.08;0.70;;;11.80;99.90;;;;;;8229261;28;20022;-81
2023/02/18 08:20:52;;;;;;;0.75;0.57;;;11.80;99.90;;;;;;8223661;28;20027;-81
2023/02/18 08:24:55;;;;;;;1.55;0.77;;;12.10;99.90;;;;;;8220829;28;20629;-80
2023/02/18 08:28:55;;;;;;;1.02;0.75;;;12.20;99.90;;;;;;8218049;28;20629;-79
2023/02/18 08:32:56;;;;;;;1.02;0.50;;;12.00;99.90;;;;;;8224832;28;20023;-80
2023/02/18 08:36:57;;;;;;;1.00;0.57;;;11.90;99.90;;;;;;8233346;28;20035;-80
2023/02/18 08:41:03;;;;;;;0.57;0.43;;;12.00;99.90;;;;;;8247036;28;20491;-80
2023/02/18 08:45:05;;;;;;;0.40;0.40;;;12.30;99.90;;;;;;8222862;28;20030;-79
2023/02/18 08:49:05;;;;;;;0.60;0.50;;;12.30;99.90;;;;;;8232732;28;20049;-79
2023/02/18 08:53:06;;;;;;;0.60;0.40;;;12.30;99.90;;;;;;8240736;28;20034;-80
2023/02/18 08:57:06;;;;;;;4.22;2.05;;;12.30;99.90;;;;;;8218490;28;20050;-80
2023/02/18 09:01:09;;;;;;;14.80;6.20;;;12.30;99.90;;;;;;8244665;28;20034;-80
2023/02/18 09:05:10;;;;;;;0.82;0.60;;;12.40;99.90;;;;;;8242766;28;20030;-81
2023/02/18 09:09:10;;;;;;;1.35;0.77;;;12.90;99.90;;;;;;8235189;28;20027;-79
2023/02/18 09:13:11;;;;;;;1.38;0.75;;;12.80;99.90;;;;;;8255040;28;20026;-80
2023/02/18 09:17:11;;;;;;;1.20;1.10;;;12.80;99.90;;;;;;8248015;28;20023;-80
2023/02/18 09:21:14;;;;;;;1.85;0.60;;;12.60;99.90;;;;;;8232383;28;20121;-81
2023/02/18 09:25:15;;;;;;;1.10;0.85;;;12.70;99.90;;;;;;8248602;28;20073;-81
2023/02/18 09:29:18;;;;;;;0.52;0.45;;;12.60;99.90;;;;;;8254607;28;20030;-80
2023/02/18 09:33:19;;;;;;;0.98;0.70;;;12.60;99.90;;;;;;8237016;28;20113;-80
2023/02/18 09:37:19;;;;;;;1.35;0.57;;;12.90;99.90;;;;;;8228206;28;20451;-80
2023/02/18 09:41:28;;;;;;;1.27;0.80;;;13.40;99.90;;;;;;8264933;28;20034;-80
2023/02/18 09:45:29;;;;;;;1.25;0.85;;;13.70;99.90;;;;;;8240388;28;20069;-81
2023/02/18 09:49:35;;;;;;;2.22;0.90;;;13.90;99.90;;;;;;8234715;28;20037;-81
2023/02/18 09:53:35;;;;;;;1.65;1.00;;;14.20;99.90;;;;;;8230001;28;20023;-80
2023/02/18 09:57:48;;;;;;;3.35;2.40;;;14.20;99.90;;;;;;8234503;28;20495;-81
2023/02/18 10:01:53;;;;;;;1.38;0.93;;;13.80;99.90;;;;;;8222225;28;20543;-81
2023/02/18 10:06:04;;;;;;;0.90;0.70;;;13.90;99.90;;;;;;8254962;28;20491;-79
2023/02/18 10:10:31;;;;;;;1.10;0.77;;;13.80;99.90;;;;;;8249661;28;20120;-80
2023/02/18 10:14:31;;;;;;;1.98;0.60;;;13.90;99.90;;;;;;8244319;28;20047;-81
2023/02/18 10:18:41;;;;;;;0.60;0.40;;;13.60;99.90;;;;;;8246024;28;20034;-79
2023/02/18 10:22:43;;;;;;;0.57;0.45;;;14.00;99.90;;;;;;8253966;28;20077;-81
2023/02/18 10:26:43;;;;;;;1.90;0.60;;;14.50;99.90;;;;;;8252991;28;20026;-77
2023/02/18 10:30:56;;;;;;;1.67;1.35;;;15.10;99.90;;;;;;8239137;28;20030;-82
2023/02/18 10:35:14;;;;;;;1.02;0.60;;;15.20;99.90;;;;;;8222494;28;20027;-82
2023/02/18 10:39:21;;;;;;;0.80;0.70;;;16.30;99.90;;;;;;8212836;28;20224;-82
2023/02/18 10:43:56;;;;;;;1.27;0.85;;;16.50;99.90;;;;;;8225138;28;20026;-81
2023/02/18 10:48:34;;;;;;;1.88;0.95;;;16.10;99.90;;;;;;8246303;28;20526;-81
2023/02/18 10:52:44;;;;;;;1.75;0.60;;;16.20;99.90;;;;;;8230276;28;20033;-80
2023/02/18 10:56:50;;;;;;;5.35;0.60;;;15.90;99.90;;;;;;8251499;28;20039;-81
2023/02/18 11:00:54;;;;;;;0.73;0.50;;;16.10;99.90;;;;;;8234102;28;20093;-80
2023/02/18 11:04:57;;;;;;;0.73;0.60;;;16.60;99.90;;;;;;8227292;28;20548;-82
2023/02/18 11:08:59;;;;;;;1.20;0.63;;;16.20;99.90;;;;;;8230296;28;20491;-81
2023/02/18 11:13:05;;;;;;;0.43;0.40;;;16.30;99.90;;;;;;8248775;28;20034;-80
2023/02/18 11:17:20;;;;;;;0.20;0.20;;;15.70;99.90;;;;;;8234807;28;20026;-80
2023/02/18 11:21:25;;;;;;;1.67;0.80;;;15.60;99.90;;;;;;8238023;28;20026;-79
2023/02/18 11:25:32;;;;;;;0.52;0.47;;;15.60;99.90;;;;;;8236821;28;20403;-79
2023/02/18 11:29:36;;;;;;;1.00;0.68;;;15.80;99.90;;;;;;8238279;28;20026;-80
2023/02/18 11:33:42;;;;;;;1.58;0.50;;;15.50;99.90;;;;;;8240647;28;20030;-81
2023/02/18 11:37:43;;;;;;;1.15;0.82;;;15.30;99.90;;;;;;8234186;28;20034;-80
2023/02/18 11:41:57;;;;;;;0.65;0.43;;;15.00;99.90;;;;;;8243028;28;20128;-81
2023/02/18 11:46:19;;;;;;;0.85;0.52;;;14.50;99.90;;;;;;8235376;28;20053;-81
2023/02/18 11:50:21;;;;;;;0.70;0.50;;;14.10;99.90;;;;;;8236830;28;20030;-81
2023/02/18 11:54:29;;;;;;;0.47;0.47;;;13.80;99.90;;;;;;8218475;28;20057;-81
2023/02/18 11:58:47;;;;;;;0.77;0.50;;;13.70;99.90;;;;;;8216427;28;20130;-81
2023/02/18 12:02:48;;;;;;;0.50;0.50;;;13.50;99.90;;;;;;8213982;28;20031;-80
2023/02/18 12:06:55;;;;;;;1.38;0.38;;;13.50;99.90;;;;;;8218911;28;20027;-80
2023/02/18 12:11:27;;;;;;;1.75;0.73;;;13.60;99.90;;;;;;8231545;28;20093;-80
2023/02/18 12:15:42;;;;;;;0.38;0.38;;;13.70;99.90;;;;;;8204034;28;20086;-80
2023/02/18 12:20:01;;;;;;;0.82;0.70;;;13.60;99.90;;;;;;8217031;28;20027;-80
2023/02/18 12:24:19;;;;;;;0.85;0.28;;;13.80;99.90;;;;;;8223077;28;20058;-79
2023/02/18 12:28:44;;;;;;;0.30;0.30;;;13.70;99.90;;;;;;8237228;28;20398;-80
2023/02/18 12:32:51;;;;;;;0.50;0.40;;;13.80;99.90;;;;;;8216616;28;20034;-80
2023/02/18 12:37:28;;;;;;;1.55;0.68;;;14.20;99.90;;;;;;8237705;28;20022;-80
2023/02/18 12:41:39;;;;;;;0.47;0.40;;;14.00;99.90;;;;;;8225563;28;20033;-80
2023/02/18 12:46:15;;;;;;;2.90;0.52;;;14.00;99.90;;;;;;8243382;28;20083;-80
2023/02/18 12:50:44;;;;;;;1.20;0.50;;;14.30;99.90;;;;;;8241935;28;20034;-80
2023/02/18 12:54:59;;;;;;;0.73;0.60;;;14.20;99.90;;;;;;8235416;28;20267;-78
2023/02/18 12:59:37;;;;;;;1.98;0.50;;;13.90;99.90;;;;;;8249464;28;20508;-80
2023/02/18 13:03:50;;;;;;;0.95;0.60;;;13.80;99.90;;;;;;8227858;28;20223;-80
2023/02/18 13:08:25;;;;;;;0.85;0.40;;;13.60;99.90;;;;;;8238205;28;20023;-79
2023/02/18 13:12:54;;;;;;;0.70;0.60;;;13.90;99.90;;;;;;8215366;28;20062;-81
2023/02/18 13:16:58;;;;;;;0.95;0.60;;;14.20;99.90;;;;;;8237363;28;20514;-80
2023/02/18 13:21:03;;;;;;;1.48;0.50;;;13.80;99.90;;;;;;8236938;28;20470;-79
2023/02/18 13:25:04;;;;;;;0.60;0.50;;;13.60;99.90;;;;;;8221979;28;20029;-79
2023/02/18 13:29:07;;;;;;;0.88;0.50;;;13.70;99.90;;;;;;8233471;28;20041;-80
2023/02/18 13:33:17;;;;;;;0.60;0.43;;;13.80;99.90;;;;;;8232513;28;20141;-79
2023/02/18 13:37:49;;;;;;;0.40;0.40;;;13.90;99.90;;;;;;8224458;28;20065;-79
2023/02/18 13:41:50;;;;;;;1.38;0.47;;;13.90;99.90;;;;;;8223471;28;20045;-79
2023/02/18 13:46:06;;;;;;;1.55;0.40;;;14.00;99.90;;;;;;8262978;28;20019;-78
2023/02/18 13:50:26;;;;;;;0.32;0.32;;;13.90;99.90;;;;;;8244362;28;20022;-80
2023/02/18 13:54:42;;;;;;;0.30;0.27;;;13.70;99.90;;;;;;8234860;28;20458;-80
2023/02/18 13:58:42;;;;;;;2.13;0.40;;;13.40;99.90;;;;;;8255706;28;20157;-79
2023/02/18 14:02:57;;;;;;;0.57;0.40;;;13.30;99.90;;;;;;8221611;28;20049;-80
2023/02/18 14:07:43;;;;;;;0.40;0.40;;;13.20;99.90;;;;;;8220357;28;20246;-79
2023/02/18 14:11:54;;;;;;;0.52;0.40;;;13.10;99.90;;;;;;8239053;28;20122;-80
2023/02/18 14:15:59;;;;;;;0.73;0.40;;;13.20;99.90;;;;;;8226594;28;20495;-80
2023/02/18 14:20:00;;;;;;;1.17;0.60;;;13.30;99.90;;;;;;8232444;28;20027;-80
2023/02/18 14:24:03;;;;;;;0.70;0.60;;;13.20;99.90;;;;;;8232903;28;20022;-80
2023/02/18 14:28:32;;;;;;;0.40;0.40;;;13.00;99.90;;;;;;8224161;28;20130;-79
2023/02/18 14:32:33;;;;;;;0.40;0.30;;;13.30;99.90;;;;;;8229197;28;20037;-77
2023/02/18 14:36:34;;;;;;;0.70;0.50;;;13.30;99.90;;;;;;8245735;28;20406;-80
2023/02/18 14:40:50;;;;;;;0.60;0.50;;;13.60;99.90;;;;;;8246453;28;20077;-80
2023/02/18 14:45:30;;;;;;;0.55;0.55;;;13.70;99.90;;;;;;8220349;28;20031;-79
2023/02/18 14:49:48;;;;;;;1.48;0.63;;;13.70;99.90;;;;;;8237791;28;20526;-79
2023/02/18 14:53:50;;;;;;;1.85;0.73;;;13.60;99.90;;;;;;8241383;28;20019;-80
2023/02/18 14:58:02;;;;;;;1.35;0.70;;;13.50;99.90;;;;;;8224269;28;20022;-79
2023/02/18 15:02:02;;;;;;;1.65;0.50;;;13.80;99.90;;;;;;8224777;28;20113;-79
2023/02/18 15:06:03;;;;;;;1.55;0.82;;;13.80;99.90;;;;;;8244424;28;20019;-80
2023/02/18 15:10:04;;;;;;;8.35;4.13;;;13.50;99.90;;;;;;8229719;28;20066;-80
2023/02/18 15:14:15;;;;;;;5.47;3.63;;;13.50;99.90;;;;;;8240815;28;20031;-80
2023/02/18 15:18:52;;;;;;;3.20;1.30;;;13.30;99.90;;;;;;8234414;28;20030;-80
2023/02/18 15:22:54;;;;;;;1.88;0.70;;;13.30;99.90;;;;;;8225154;28;20018;-79
2023/02/18 15:27:01;;;;;;;0.70;0.70;;;13.20;99.90;;;;;;8222301;28;20038;-78
2023/02/18 15:31:02;;;;;;;0.60;0.60;;;13.10;99.90;;;;;;8218332;28;20143;-80
2023/02/18 15:35:14;;;;;;;1.17;0.50;;;13.00;99.90;;;;;;8245521;28;20479;-79
2023/02/18 15:39:15;;;;;;;0.98;0.70;;;12.70;99.90;;;;;;8219340;28;20410;-80
2023/02/18 15:43:21;;;;;;;2.08;0.90;;;12.70;99.90;;;;;;8251136;28;20030;-80
2023/02/18 15:47:22;;;;;;;0.32;0.30;;;12.60;99.90;;;;;;8232179;28;20015;-80
2023/02/18 15:51:30;;;;;;;1.83;0.60;;;12.50;99.90;;;;;;8244790;28;20491;-80
2023/02/18 15:55:40;;;;;;;0.95;0.45;;;12.30;99.90;;;;;;8238150;28;20053;-80
2023/02/18 15:59:54;;;;;;;1.25;0.57;;;12.20;99.90;;;;;;8230790;28;20438;-81
2023/02/18 16:03:55;;;;;;;0.50;0.47;;;12.10;99.90;;;;;;8247646;28;20030;-81
2023/02/18 16:07:59;;;;;;;1.10;0.68;;;11.90;99.90;;;;;;8255400;28;20023;-81
2023/02/18 16:12:03;;;;;;;2.45;0.60;;;11.70;99.90;;;;;;8245655;28;20031;-81
2023/02/18 16:16:04;;;;;;;0.82;0.60;;;11.80;99.90;;;;;;8233260;28;20403;-80
2023/02/18 16:20:17;;;;;;;1.15;0.68;;;11.80;99.90;;;;;;8219304;28;20030;-81
2023/02/18 16:24:27;;;;;;;1.92;0.80;;;11.60;99.90;;;;;;8233709;28;20018;-81
2023/02/18 16:28:32;;;;;;;2.13;0.93;;;11.40;99.90;;;;;;8248850;28;20446;-81
2023/02/18 16:32:33;;;;;;;1.77;1.05;;;11.30;99.90;;;;;;8215650;28;20392;-81
2023/02/18 16:36:33;;;;;;;1.50;0.77;;;11.20;99.90;;;;;;8248710;28;20026;-81
2023/02/18 16:40:35;;;;;;;0.80;0.65;;;11.20;99.90;;;;;;8243509;28;20030;-80
2023/02/18 16:44:36;;;;;;;0.85;0.60;;;11.00;99.90;;;;;;8243359;28;20223;-81
2023/02/18 16:48:43;;;;;;;0.98;0.68;;;10.90;99.90;;;;;;8244887;28;20030;-81
2023/02/18 16:52:44;;;;;;;1.20;0.60;;;10.70;99.90;;;;;;8245480;28;20090;-81
2023/02/18 16:56:44;;;;;;;1.20;0.68;;;10.80;99.90;;;;;;8228754;28;20440;-79
2023/02/18 17:00:46;;;;;;;0.80;0.60;;;10.50;99.90;;;;;;8238372;28;20177;-80
2023/02/18 17:04:47;;;;;;;1.08;0.82;;;10.60;99.90;;;;;;8265815;28;20018;-77
2023/02/18 17:08:48;;;;;;;0.70;0.70;;;10.40;99.90;;;;;;8252630;28;20018;-82
2023/02/18 17:12:48;;;;;;;1.58;0.85;;;10.40;99.90;;;;;;8233014;28;20085;-81
2023/02/18 17:16:52;;;;;;;1.95;0.90;;;10.40;99.90;;;;;;8260632;28;20041;-80
2023/02/18 17:20:52;;;;;;;1.25;0.88;;;10.40;99.90;;;;;;8249755;28;20041;-81
2023/02/18 17:24:53;;;;;;;1.20;0.88;;;10.50;99.90;;;;;;8234269;28;20018;-80
2023/02/18 17:28:55;;;;;;;1.45;0.90;;;10.50;99.90;;;;;;8245226;28;20015;-81
2023/02/18 17:32:59;;;;;;;1.83;0.88;;;10.40;99.90;;;;;;8220426;28;20093;-81
2023/02/18 17:36:59;;;;;;;1.23;0.82;;;10.50;99.90;;;;;;8237892;28;20058;-81
2023/02/18 17:41:00;;;;;;;2.55;1.20;;;10.50;99.90;;;;;;8230041;28;20030;-80
2023/02/18 17:45:01;;;;;;;1.63;1.10;;;10.50;99.90;;;;;;8226622;28;20065;-80
2023/02/18 17:49:02;;;;;;;0.82;0.77;;;10.50;99.90;;;;;;8227386;28;20045;-81
2023/02/18 17:53:03;;;;;;;0.90;0.70;;;10.40;99.90;;;;;;8255854;28;20039;-80
2023/02/18 17:57:04;;;;;;;2.95;1.60;;;10.40;99.90;;;;;;8243169;28;20031;-80
2023/02/18 18:01:05;;;;;;;4.72;2.70;;;10.50;99.90;;;;;;8233518;28;20497;-80
2023/02/18 18:05:06;;;;;;;6.20;3.40;;;10.50;99.90;;;;;;8234930;28;20059;-81
2023/02/18 18:09:07;;;;;;;2.20;1.42;;;10.50;99.90;;;;;;8238760;28;20042;-80
2023/02/18 18:13:18;;;;;;;2.17;1.10;;;10.60;99.90;;;;;;8224080;28;20121;-80
2023/02/18 18:17:19;;;;;;;1.95;1.17;;;10.60;99.90;;;;;;8237013;28;20692;-81
2023/02/18 18:21:26;;;;;;;2.58;0.95;;;10.50;99.90;;;;;;8220299;28;20033;-80
2023/02/18 18:25:35;;;;;;;1.17;0.80;;;10.50;99.90;;;;;;8224215;28;20110;-81
2023/02/18 18:29:36;;;;;;;0.88;0.80;;;10.50;99.90;;;;;;8242202;28;20039;-81
2023/02/18 18:33:36;;;;;;;1.65;0.77;;;10.40;99.90;;;;;;8216431;28;20069;-81
2023/02/18 18:37:37;;;;;;;1.17;0.85;;;10.30;99.90;;;;;;8236349;28;20558;-81
2023/02/18 18:41:38;;;;;;;1.13;0.90;;;10.40;99.90;;;;;;8214677;28;20023;-81
2023/02/18 18:45:38;;;;;;;1.90;0.90;;;10.20;99.90;;;;;;8251532;28;20022;-82
2023/02/18 18:49:39;;;;;;;0.75;0.75;;;10.40;99.90;;;;;;8224769;28;20029;-82
2023/02/18 18:53:39;;;;;;;1.10;0.90;;;10.50;99.90;;;;;;8236000;28;20081;-81
2023/02/18 18:57:40;;;;;;;1.27;0.80;;;10.60;99.90;;;;;;8236508;28;20859;-80
2023/02/18 19:01:40;;;;;;;1.20;0.70;;;10.60;99.90;;;;;;8223940;28;20121;-81
2023/02/18 19:05:43;;;;;;;1.52;0.85;;;10.60;99.90;;;;;;8237335;28;20019;-80
2023/02/18 19:09:43;;;;;;;1.33;0.80;;;10.60;99.90;;;;;;8228788;28;20039;-80
2023/02/18 19:13:44;;;;;;;1.05;0.80;;;10.50;99.90;;;;;;8244040;28;20090;-81
2023/02/18 19:17:51;;;;;;;1.27;1.00;;;10.60;99.90;;;;;;8244196;28;20487;-80
2023/02/18 19:21:52;;;;;;;0.77;0.75;;;10.60;99.90;;;;;;8214122;28;20738;-81
2023/02/18 19:25:52;;;;;;;1.08;0.82;;;10.60;99.90;;;;;;8252015;28;20015;-82
2023/02/18 19:29:54;;;;;;;0.68;0.68;;;10.70;99.90;;;;;;8261815;28;20478;-82
2023/02/18 19:33:55;;;;;;;1.25;0.60;;;10.70;99.90;;;;;;8219694;28;20038;-82
2023/02/18 19:37:56;;;;;;;1.50;0.80;;;10.70;99.90;;;;;;8238131;28;20384;-81
2023/02/18 19:41:56;;;;;;;1.20;0.80;;;10.60;99.90;;;;;;8242296;28;20039;-82
2023/02/18 19:45:57;;;;;;;1.13;0.77;;;10.70;99.90;;;;;;8233971;28;20117;-82
2023/02/18 19:50:01;;;;;;;1.10;0.90;;;10.70;99.90;;;;;;8238097;28;20027;-82
2023/02/18 19:54:01;;;;;;;1.90;1.00;;;10.70;99.90;;;;;;8228746;28;20085;-82
2023/02/18 19:58:02;;;;;;;1.08;0.75;;;10.70;99.90;;;;;;8239011;28;20041;-83
2023/02/18 20:02:03;;;;;;;1.20;0.88;;;10.70;99.90;;;;;;8241021;28;20374;-81
2023/02/18 20:06:04;;;;;;;1.27;0.90;;;10.70;99.90;;;;;;8240520;28;20069;-82
2023/02/18 20:10:06;;;;;;;1.45;0.70;;;10.70;99.90;;;;;;8238886;28;20085;-82
2023/02/18 20:14:07;;;;;;;0.98;0.88;;;10.70;99.90;;;;;;8238247;28;20091;-83
2023/02/18 20:18:07;;;;;;;1.27;0.88;;;10.70;99.90;;;;;;8249361;28;20067;-82
2023/02/18 20:22:09;;;;;;;1.50;0.80;;;10.70;99.90;;;;;;8224870;28;20034;-82
2023/02/18 20:26:11;;;;;;;1.00;0.90;;;10.60;99.90;;;;;;8242085;28;20014;-82
2023/02/18 20:30:12;;;;;;;1.38;0.90;;;10.60;99.90;;;;;;8232570;28;20034;-83
2023/02/18 20:34:13;;;;;;;1.27;0.85;;;10.60;99.90;;;;;;8246426;28;20046;-82
2023/02/18 20:38:13;;;;;;;0.95;0.68;;;10.60;99.90;;;;;;8233418;28;20069;-82
2023/02/18 20:42:14;;;;;;;1.27;0.98;;;10.60;99.90;;;;;;8244595;28;20093;-82
2023/02/18 20:46:19;;;;;;;1.48;0.98;;;10.60;99.90;;;;;;8230624;28;20069;-82
2023/02/18 20:50:20;;;;;;;1.33;0.73;;;10.60;99.90;;;;;;8232151;28;20047;-83
2023/02/18 20:54:21;;;;;;;1.95;1.17;;;10.40;99.90;;;;;;8235535;28;20442;-82
2023/02/18 20:58:22;;;;;;;1.30;1.00;;;10.30;99.90;;;;;;8224751;28;20030;-82
2023/02/18 21:02:22;;;;;;;1.58;1.02;;;10.40;99.90;;;;;;8228614;28;20114;-83
2023/02/18 21:06:24;;;;;;;1.02;0.90;;;10.40;99.90;;;;;;8224454;28;20030;-82
2023/02/18 21:10:24;;;;;;;2.15;1.15;;;10.40;99.90;;;;;;8232601;28;20023;-82
2023/02/18 21:14:25;;;;;;;1.40;1.13;;;10.30;99.90;;;;;;8231344;28;20085;-83
2023/02/18 21:18:25;;;;;;;2.55;1.10;;;10.20;99.90;;;;;;8230445;28;20031;-82
2023/02/18 21:22:26;;;;;;;1.33;0.90;;;10.30;99.90;;;;;;8226598;28;20030;-82